Time;durP1;ratioP1;P1;durP2;ratioP2;P2;SDS_P1;SDS_P2;PMS_P1;PMS_P2;Temp;Humidity;BMP_temperature;BMP_pressure;BME280_temperature;BME280_humidity;BME280_pressure;Samples;Min_cycle;Max_cycle;Signal;HPM_P1;HPM_P2
2021/12/25 00:00:05;;;;;;;4.82;2.03;;;;;;;5.92;100.00;94375.75;5107947;28;20765;-80
2021/12/25 00:02:51;;;;;;;3.72;1.83;;;;;;;6.14;100.00;94388.47;5099145;28;20052;-80
2021/12/25 00:05:17;;;;;;;4.28;1.77;;;;;;;6.16;100.00;94386.38;5112206;27;20043;-80
2021/12/25 00:07:42;;;;;;;4.00;2.03;;;;;;;6.11;100.00;94393.47;5103696;28;20044;-80
2021/12/25 00:10:09;;;;;;;4.00;2.03;;;;;;;6.06;100.00;94387.19;5116514;27;20039;-80
2021/12/25 00:12:35;;;;;;;4.75;2.00;;;;;;;5.87;100.00;94388.81;5119713;27;20032;-81
2021/12/25 00:15:01;;;;;;;4.50;2.20;;;;;;;5.86;100.00;94392.44;5098396;27;20090;-80
2021/12/25 00:17:27;;;;;;;5.18;2.15;;;;;;;5.85;100.00;94401.34;5098097;28;20117;-81
2021/12/25 00:19:53;;;;;;;4.43;1.98;;;;;;;5.75;100.00;94390.91;5108994;28;20117;-82
2021/12/25 00:22:21;;;;;;;3.40;1.80;;;;;;;5.78;100.00;94385.19;5097160;28;20044;-80
2021/12/25 00:24:47;;;;;;;4.28;1.83;;;;;;;5.79;100.00;94391.94;5087257;28;20542;-81
2021/12/25 00:35:15;;;;;;;2.85;1.85;;;;;;;6.03;100.00;94398.19;5052745;28;20109;-80
2021/12/25 00:37:41;;;;;;;2.60;1.60;;;;;;;6.05;100.00;94400.53;5090101;28;20037;-80
2021/12/25 00:40:07;;;;;;;4.85;1.67;;;;;;;6.01;100.00;94400.28;5089859;28;20052;-81
2021/12/25 00:42:33;;;;;;;2.92;1.73;;;;;;;5.99;100.00;94394.53;5099065;28;20051;-81
2021/12/25 00:44:58;;;;;;;4.25;1.95;;;;;;;6.05;100.00;94390.84;5091836;28;20040;-80
2021/12/25 00:47:24;;;;;;;2.78;1.70;;;;;;;5.97;100.00;94388.78;5101458;28;20112;-79
2021/12/25 00:49:49;;;;;;;4.82;2.10;;;;;;;5.92;100.00;94380.97;5097217;28;20043;-81
2021/12/25 00:52:15;;;;;;;2.88;1.73;;;;;;;5.92;100.00;94380.97;5107662;28;20060;-82
2021/12/25 00:54:41;;;;;;;3.40;1.83;;;;;;;6.00;100.00;94377.81;5106025;28;20043;-80
2021/12/25 00:57:06;;;;;;;4.25;1.90;;;;;;;5.96;100.00;94384.59;5096162;28;20032;-79
2021/12/25 00:59:32;;;;;;;3.83;1.90;;;;;;;6.07;100.00;94383.53;5091882;28;20036;-79
2021/12/25 01:01:58;;;;;;;3.22;1.60;;;;;;;6.09;100.00;94382.47;5089105;28;20058;-80
2021/12/25 01:04:24;;;;;;;4.35;1.98;;;;;;;5.98;100.00;94379.91;5082047;28;20051;-80
2021/12/25 01:06:50;;;;;;;6.10;1.90;;;;;;;6.00;100.00;94377.81;5089142;28;20040;-80
2021/12/25 01:09:16;;;;;;;4.03;2.05;;;;;;;6.01;100.00;94374.16;5093520;28;20044;-79
2021/12/25 01:11:45;;;;;;;3.85;2.08;;;;;;;5.86;100.00;94371.56;5074982;28;20047;-79
2021/12/25 01:14:25;;;;;;;5.63;2.17;;;;;;;5.71;100.00;94365.34;5116932;27;20565;-81
2021/12/25 01:25:49;;;;;;;4.25;1.83;;;;;;;5.96;100.00;94358.50;5102686;27;20523;-80
2021/12/25 01:33:04;;;;;;;3.60;1.80;;;;;;;6.00;100.00;94366.59;5110460;27;20125;-82
2021/12/25 01:38:24;;;;;;;3.05;1.70;;;;;;;5.91;100.00;94379.38;5113057;27;20048;-81
2021/12/25 01:49:04;;;;;;;3.58;1.60;;;;;;;5.80;100.00;94362.97;5097391;27;20389;-81
2021/12/25 01:51:30;;;;;;;4.97;1.90;;;;;;;5.92;100.00;94356.66;5099813;28;20109;-82
2021/12/25 01:53:55;;;;;;;3.85;1.63;;;;;;;5.89;100.00;94350.94;5107757;27;20589;-80
2021/12/25 01:56:22;;;;;;;2.92;1.55;;;;;;;6.04;100.00;94347.50;5113159;28;20504;-80
2021/12/25 01:58:48;;;;;;;4.47;1.83;;;;;;;6.10;100.00;94347.47;5097902;27;20036;-81
2021/12/25 02:01:14;;;;;;;3.03;1.70;;;;;;;6.07;100.00;94346.94;5093505;28;20033;-80
2021/12/25 02:03:40;;;;;;;3.42;1.70;;;;;;;6.04;100.00;94350.09;5092856;28;20048;-80
2021/12/25 02:06:08;;;;;;;3.58;1.42;;;;;;;6.19;100.00;94348.47;5115466;27;20055;-81
2021/12/25 02:08:36;;;;;;;3.65;1.60;;;;;;;6.08;100.00;94347.75;5112099;27;20097;-81
2021/12/25 02:11:03;;;;;;;1.88;1.27;;;;;;;6.10;100.00;94339.66;5101192;28;20042;-80
2021/12/25 02:13:28;;;;;;;2.40;1.58;;;;;;;6.21;100.00;94346.38;5106747;27;20041;-82
2021/12/25 02:15:56;;;;;;;2.33;1.50;;;;;;;6.27;100.00;94345.28;5120408;27;20051;-82
2021/12/25 02:18:54;;;;;;;3.03;1.38;;;;;;;6.28;100.00;94346.88;5094077;28;20044;-80
2021/12/25 02:21:17;;;;;;;2.35;1.48;;;;;;;6.17;100.00;94340.13;5109932;27;20051;-81
2021/12/25 02:23:43;;;;;;;2.55;1.50;;;;;;;6.14;100.00;94340.66;5115177;27;20445;-82
2021/12/25 02:26:09;;;;;;;2.60;1.50;;;;;;;6.12;100.00;94337.53;5118861;27;20035;-81
2021/12/25 02:28:35;;;;;;;2.60;1.40;;;;;;;6.12;100.00;94337.53;5103471;27;20039;-81
2021/12/25 02:31:08;;;;;;;2.65;1.52;;;;;;;6.07;100.00;94328.66;5103153;28;20103;-81
2021/12/25 02:33:34;;;;;;;2.42;1.55;;;;;;;6.07;100.00;94331.28;5093797;27;20039;-82
2021/12/25 02:36:00;;;;;;;4.30;1.55;;;;;;;5.99;100.00;94326.63;5101030;27;20047;-80
2021/12/25 02:38:26;;;;;;;3.08;1.48;;;;;;;5.83;100.00;94319.88;5095439;28;20063;-80
2021/12/25 02:40:53;;;;;;;3.10;1.40;;;;;;;5.79;100.00;94324.06;5080570;28;20516;-82
2021/12/25 02:43:19;;;;;;;3.58;1.60;;;;;;;5.68;100.00;94324.13;5105205;28;20065;-80
2021/12/25 02:45:44;;;;;;;2.17;1.40;;;;;;;5.70;100.00;94319.44;5089211;27;20031;-80
2021/12/25 02:48:14;;;;;;;1.60;1.17;;;;;;;5.78;100.00;94327.75;5098864;27;20123;-81
2021/12/25 02:50:40;;;;;;;1.98;1.30;;;;;;;5.89;100.00;94321.44;5083785;28;20029;-82
2021/12/25 02:53:07;;;;;;;2.55;1.38;;;;;;;5.95;100.00;94322.97;5084046;28;20842;-80
2021/12/25 02:55:35;;;;;;;1.80;1.30;;;;;;;6.04;100.00;94321.38;5080477;28;20508;-81
2021/12/25 02:58:00;;;;;;;2.05;1.30;;;;;;;5.96;100.00;94324.53;5093191;28;20056;-81
2021/12/25 03:00:47;;;;;;;2.65;1.40;;;;;;;5.79;100.00;94329.28;5093398;27;20039;-81
2021/12/25 03:03:13;;;;;;;2.63;1.40;;;;;;;5.61;100.00;94334.06;5099817;28;20040;-82
2021/12/25 03:05:39;;;;;;;2.42;1.40;;;;;;;5.63;100.00;94326.75;5116985;27;20560;-81
2021/12/25 03:08:08;;;;;;;3.17;1.30;;;;;;;5.61;100.00;94328.84;5119828;27;20036;-81
2021/12/25 03:10:35;;;;;;;1.63;1.13;;;;;;;5.65;100.00;94324.66;5120228;27;20067;-83
2021/12/25 03:15:45;;;;;;;2.08;1.38;;;;;;;5.65;100.00;94335.09;5098005;28;20040;-82
2021/12/25 03:18:34;;;;;;;2.60;1.42;;;;;;;5.49;100.00;94341.44;5103010;27;20059;-81
2021/12/25 03:21:02;;;;;;;1.65;1.30;;;;;;;5.43;100.00;94337.25;5096144;28;20039;-82
2021/12/25 03:23:30;;;;;;;2.40;1.20;;;;;;;5.37;100.00;94345.09;5095393;27;20055;-80
2021/12/25 03:25:57;;;;;;;2.25;1.38;;;;;;;5.35;100.00;94331.53;5120981;27;20446;-82
2021/12/25 03:28:25;;;;;;;1.88;1.30;;;;;;;5.20;100.00;94334.97;5105122;27;20057;-80
2021/12/25 03:30:51;;;;;;;2.95;1.40;;;;;;;5.25;100.00;94336.78;5125228;27;20058;-83
2021/12/25 03:33:20;;;;;;;2.22;1.30;;;;;;;5.23;100.00;94328.44;5081095;28;20039;-80
2021/12/25 03:35:45;;;;;;;2.38;1.50;;;;;;;5.00;100.00;94330.56;5097377;28;20036;-81
2021/12/25 03:38:13;;;;;;;2.10;1.30;;;;;;;5.03;100.00;94322.19;5091689;28;20094;-83
2021/12/25 03:40:40;;;;;;;1.80;1.35;;;;;;;5.10;100.00;94328.97;5109485;28;20035;-79
2021/12/25 03:43:06;;;;;;;3.00;1.70;;;;;;;5.01;100.00;94332.13;5111626;28;20528;-81
2021/12/25 03:45:34;;;;;;;3.60;1.25;;;;;;;5.12;100.00;94326.91;5112331;28;20043;-82
2021/12/25 03:48:13;;;;;;;2.88;1.60;;;;;;;5.10;100.00;94318.53;5106573;28;20115;-80
2021/12/25 03:58:46;;;;;;;3.47;1.40;;;;;;;5.03;100.00;94303.94;5092416;28;20040;-82
2021/12/25 04:01:46;;;;;;;2.90;1.35;;;;;;;5.00;100.00;94309.69;5095669;28;20056;-81
2021/12/25 04:09:27;;;;;;;2.85;1.67;;;;;;;4.98;100.00;94298.72;5094014;28;20055;-81
2021/12/25 04:11:55;;;;;;;3.05;1.65;;;;;;;5.08;100.00;94291.94;5103790;28;20040;-82
2021/12/25 04:14:21;;;;;;;2.85;1.38;;;;;;;4.82;100.00;94284.16;5092487;28;20043;-80
2021/12/25 04:16:47;;;;;;;2.70;1.58;;;;;;;4.72;100.00;94286.78;5095647;28;20090;-83
2021/12/25 04:19:13;;;;;;;2.83;1.60;;;;;;;4.54;100.00;94275.88;5106269;28;20509;-82
2021/12/25 04:21:48;;;;;;;3.38;1.73;;;;;;;4.64;100.00;94286.28;5098882;28;20040;-81
2021/12/25 04:24:14;;;;;;;2.53;1.58;;;;;;;4.65;100.00;94293.03;5081806;28;20493;-82
2021/12/25 04:26:42;;;;;;;3.15;1.52;;;;;;;4.60;100.00;94295.66;5095758;28;20044;-82
2021/12/25 05:04:26;;;;;;;2.88;1.60;;;;;;;4.77;100.00;94258.09;5101690;27;20502;-80
2021/12/25 05:06:52;;;;;;;3.17;1.92;;;;;;;4.58;100.00;94271.66;5105327;27;20055;-81
2021/12/25 05:09:17;;;;;;;4.72;1.80;;;;;;;4.38;100.00;94271.69;5096632;28;20036;-81
2021/12/25 05:11:43;;;;;;;3.03;1.80;;;;;;;4.34;100.00;94272.19;5110728;27;20132;-80
2021/12/25 05:14:09;;;;;;;2.38;1.35;;;;;;;4.56;100.00;94265.94;5108187;27;20039;-79
2021/12/25 05:16:34;;;;;;;3.00;1.80;;;;;;;4.25;100.00;94263.34;5111667;27;20035;-80
2021/12/25 05:19:00;;;;;;;2.75;1.70;;;;;;;4.01;100.00;94264.88;5095471;28;20051;-82
2021/12/25 05:21:26;;;;;;;3.17;1.63;;;;;;;4.29;100.00;94256.56;5100277;28;20044;-79
2021/12/25 05:23:52;;;;;;;2.83;1.70;;;;;;;4.10;100.00;94265.94;5095688;28;20063;-80
2021/12/25 05:26:17;;;;;;;6.90;1.77;;;;;;;4.25;100.00;94262.56;5100293;28;20040;-79
2021/12/25 05:28:46;;;;;;;3.47;1.80;;;;;;;4.38;100.00;94266.47;5096642;28;20035;-79
2021/12/25 05:31:14;;;;;;;3.88;1.75;;;;;;;4.09;100.00;94270.34;5086690;28;20938;-79
2021/12/25 05:33:42;;;;;;;3.92;1.67;;;;;;;4.43;100.00;94263.88;5103749;28;20047;-82
2021/12/25 05:36:08;;;;;;;3.60;1.60;;;;;;;4.46;100.00;94268.56;5105023;28;20078;-80
2021/12/25 05:38:34;;;;;;;3.33;1.70;;;;;;;4.08;100.00;94270.59;5101942;27;20042;-80
2021/12/25 05:41:01;;;;;;;2.90;1.60;;;;;;;3.97;100.00;94278.41;5103990;28;20047;-81
2021/12/25 05:43:26;;;;;;;2.95;1.60;;;;;;;3.95;100.00;94274.47;5097116;28;20056;-81
2021/12/25 05:45:52;;;;;;;3.40;1.80;;;;;;;3.84;100.00;94267.72;5109413;28;20044;-80
2021/12/25 05:48:18;;;;;;;4.90;2.00;;;;;;;3.95;100.00;94269.28;5115465;27;20044;-79
2021/12/25 05:50:43;;;;;;;4.53;2.08;;;;;;;3.93;100.00;94266.94;5117808;28;20063;-79
2021/12/25 05:53:09;;;;;;;2.90;1.67;;;;;;;3.92;100.00;94270.59;5098804;28;20048;-81
2021/12/25 05:55:35;;;;;;;3.15;1.73;;;;;;;3.91;100.00;94266.44;5115198;27;20641;-80
2021/12/25 05:58:03;;;;;;;3.17;1.77;;;;;;;3.91;100.00;94263.81;5106351;27;20048;-79
2021/12/25 06:00:31;;;;;;;6.57;1.85;;;;;;;3.82;100.00;94265.34;5105206;27;20455;-80
2021/12/25 06:02:57;;;;;;;8.63;2.05;;;;;;;3.85;100.00;94266.66;5093244;28;20572;-80
2021/12/25 06:05:24;;;;;;;2.65;1.65;;;;;;;3.94;100.00;94257.31;5114018;27;20099;-80
2021/12/25 06:07:50;;;;;;;3.47;1.73;;;;;;;3.89;100.00;94267.72;5115230;27;20047;-80
2021/12/25 06:10:15;;;;;;;5.45;2.10;;;;;;;4.11;100.00;94262.31;5110339;28;20043;-80
2021/12/25 06:12:44;;;;;;;4.63;1.80;;;;;;;4.00;100.00;94261.50;5112526;28;20046;-81
2021/12/25 06:15:12;;;;;;;5.40;1.80;;;;;;;3.99;100.00;94259.91;5116257;27;20040;-79
2021/12/25 06:17:38;;;;;;;3.13;1.75;;;;;;;4.01;100.00;94257.06;5088387;28;20089;-79
2021/12/25 06:20:05;;;;;;;5.57;1.92;;;;;;;3.99;100.00;94260.72;5101046;28;20108;-79
2021/12/25 06:22:31;;;;;;;2.92;1.70;;;;;;;4.07;100.00;94269.06;5102869;28;20044;-80
2021/12/25 06:24:56;;;;;;;5.78;1.50;;;;;;;4.13;100.00;94271.38;5105723;27;20560;-79
2021/12/25 06:27:22;;;;;;;4.05;1.65;;;;;;;4.24;100.00;94272.19;5088335;27;20044;-79
2021/12/25 06:29:49;;;;;;;4.57;2.00;;;;;;;3.98;100.00;94264.34;5116484;27;20035;-79
2021/12/25 06:32:16;;;;;;;4.07;1.70;;;;;;;3.95;100.00;94264.88;5119396;27;20036;-79
2021/12/25 06:34:41;;;;;;;2.80;1.73;;;;;;;4.04;100.00;94266.94;5102783;27;20042;-82
2021/12/25 06:37:07;;;;;;;5.95;1.77;;;;;;;4.25;100.00;94263.34;5114226;27;20036;-80
2021/12/25 06:39:33;;;;;;;3.63;1.70;;;;;;;4.53;100.00;94266.47;5085261;28;20405;-79
2021/12/25 06:41:59;;;;;;;3.67;1.75;;;;;;;4.85;100.00;94260.19;5100179;28;20245;-79
2021/12/25 06:44:27;;;;;;;3.20;1.50;;;;;;;5.23;100.00;94265.84;5100723;28;20044;-79
2021/12/25 06:46:53;;;;;;;2.35;1.42;;;;;;;5.42;100.00;94263.44;5091256;28;20532;-79
2021/12/25 06:49:20;;;;;;;3.85;1.80;;;;;;;5.52;100.00;94257.38;5087510;28;20116;-79
2021/12/25 06:51:48;;;;;;;3.85;1.80;;;;;;;5.72;100.00;94262.50;5111388;28;20425;-81
2021/12/25 06:54:13;;;;;;;2.88;1.55;;;;;;;5.75;100.00;94265.63;5102678;28;20128;-80
2021/12/25 06:56:39;;;;;;;2.70;1.42;;;;;;;5.73;100.00;94250.22;5105823;27;20994;-79
2021/12/25 06:59:05;;;;;;;2.95;1.70;;;;;;;5.83;100.00;94257.22;5088764;28;20032;-79
2021/12/25 07:01:31;;;;;;;4.18;1.90;;;;;;;5.77;100.00;94266.13;5101889;28;20061;-80
2021/12/25 07:03:56;;;;;;;3.83;1.70;;;;;;;5.97;100.00;94260.81;5095171;27;20862;-79
2021/12/25 07:06:22;;;;;;;3.28;1.63;;;;;;;6.17;100.00;94257.31;5078088;28;20040;-80
2021/12/25 07:08:49;;;;;;;1.90;1.20;;;;;;;6.20;100.00;94263.81;5094529;28;20408;-81
2021/12/25 07:11:16;;;;;;;2.88;1.67;;;;;;;6.27;100.00;94266.91;5089029;28;20061;-81
2021/12/25 07:13:45;;;;;;;1.83;1.25;;;;;;;6.31;100.00;94273.16;5103245;27;20091;-81
2021/12/25 07:16:11;;;;;;;1.83;1.25;;;;;;;6.41;100.00;94262.63;5114074;27;20046;-80
2021/12/25 07:18:36;;;;;;;2.03;1.30;;;;;;;6.50;100.00;94254.97;5095635;27;20043;-80
2021/12/25 07:21:04;;;;;;;1.58;1.23;;;;;;;6.47;100.00;94249.53;5103648;28;20040;-80
2021/12/25 07:23:29;;;;;;;2.88;1.33;;;;;;;6.52;100.00;94246.88;5075748;28;20058;-79
2021/12/25 07:25:55;;;;;;;1.27;1.00;;;;;;;6.70;100.00;94251.41;5097351;28;20043;-78
2021/12/25 07:28:20;;;;;;;2.55;1.48;;;;;;;6.73;100.00;94242.25;5105855;28;20040;-78
2021/12/25 07:30:46;;;;;;;4.22;1.63;;;;;;;6.81;100.00;94243.47;5101713;28;20051;-78
2021/12/25 07:33:11;;;;;;;1.58;1.08;;;;;;;6.80;100.00;94247.16;5115246;27;20043;-79
2021/12/25 07:35:37;;;;;;;2.25;1.27;;;;;;;6.70;100.00;94253.25;5110373;27;20043;-80
2021/12/25 07:38:02;;;;;;;3.10;1.50;;;;;;;6.64;100.00;94254.34;5110119;27;20036;-79
2021/12/25 07:40:28;;;;;;;2.90;1.40;;;;;;;6.65;100.00;94256.69;5111268;28;20039;-79
2021/12/25 07:42:54;;;;;;;3.45;1.35;;;;;;;6.75;100.00;94258.44;5097174;27;20051;-77
2021/12/25 07:45:20;;;;;;;2.67;1.30;;;;;;;6.76;100.00;94263.38;5098019;28;20052;-76
2021/12/25 07:47:56;;;;;;;2.20;1.42;;;;;;;6.79;100.00;94250.81;5105253;28;20096;-76
2021/12/25 07:50:22;;;;;;;1.60;1.17;;;;;;;6.90;100.00;94247.81;5102690;28;20055;-76
2021/12/25 07:52:47;;;;;;;2.45;1.48;;;;;;;6.93;100.00;94256.97;5100110;28;20553;-76
2021/12/25 07:55:13;;;;;;;4.78;1.65;;;;;;;6.94;100.00;94253.31;5097773;28;20065;-79
2021/12/25 07:57:38;;;;;;;3.30;1.50;;;;;;;7.01;100.00;94258.97;5111165;28;20512;-78
2021/12/25 08:00:08;;;;;;;2.15;1.33;;;;;;;7.13;100.00;94255.22;5085352;28;20036;-77
2021/12/25 08:02:33;;;;;;;2.72;1.50;;;;;;;6.97;100.00;94247.50;5090847;28;20036;-78
2021/12/25 08:04:59;;;;;;;3.20;1.30;;;;;;;7.08;100.00;94256.81;5090045;28;20051;-77
2021/12/25 08:07:24;;;;;;;2.78;1.52;;;;;;;7.23;98.92;94255.09;5108767;28;20084;-78
2021/12/25 08:09:51;;;;;;;5.15;1.52;;;;;;;7.35;98.67;94268.56;5097824;28;20074;-78
2021/12/25 08:12:17;;;;;;;3.72;1.60;;;;;;;7.35;98.84;94258.09;5103925;28;20039;-77
2021/12/25 08:14:42;;;;;;;3.15;1.50;;;;;;;7.37;99.13;94261.22;5101749;28;20546;-79
2021/12/25 08:17:08;;;;;;;3.63;1.50;;;;;;;7.41;97.99;94262.22;5098559;28;20043;-79
2021/12/25 08:19:34;;;;;;;5.60;1.60;;;;;;;7.36;99.46;94264.13;5098887;28;20043;-79
2021/12/25 08:21:59;;;;;;;2.33;1.40;;;;;;;7.42;98.37;94269.00;5104075;28;20047;-78
2021/12/25 08:24:25;;;;;;;3.47;1.65;;;;;;;7.54;97.62;94259.97;5106521;28;20041;-78
2021/12/25 08:26:51;;;;;;;4.30;1.70;;;;;;;7.62;96.62;94261.97;5100959;28;20048;-77
2021/12/25 08:29:17;;;;;;;3.72;1.60;;;;;;;7.52;97.89;94262.09;5107347;28;20782;-77
2021/12/25 08:31:42;;;;;;;2.70;1.70;;;;;;;7.41;98.93;94262.22;5099583;28;20074;-78
2021/12/25 08:34:10;;;;;;;5.97;1.73;;;;;;;7.42;98.91;94263.75;5112230;28;20508;-78
2021/12/25 08:36:36;;;;;;;3.17;1.58;;;;;;;7.66;96.71;94255.13;5108066;28;20161;-76
2021/12/25 08:39:04;;;;;;;3.72;1.60;;;;;;;7.58;98.27;94253.13;5109128;28;20055;-79
2021/12/25 08:41:30;;;;;;;2.17;1.35;;;;;;;7.67;96.92;94253.28;5089961;28;20036;-78
2021/12/25 08:44:04;;;;;;;3.13;1.67;;;;;;;7.73;97.31;94258.16;5113730;28;20051;-78
2021/12/25 08:46:45;;;;;;;4.10;1.70;;;;;;;7.57;98.76;94254.16;5098384;28;20107;-79
2021/12/25 08:49:16;;;;;;;3.70;1.67;;;;;;;7.72;96.27;94256.59;5113514;28;20036;-78
2021/12/25 08:51:45;;;;;;;2.53;1.30;;;;;;;7.83;94.77;94256.47;5095892;28;20087;-78
2021/12/25 08:54:12;;;;;;;4.35;1.65;;;;;;;7.85;94.99;94264.84;5108128;28;20035;-78
2021/12/25 08:56:38;;;;;;;3.53;1.60;;;;;;;7.90;93.93;94262.94;5081863;28;20040;-78
2021/12/25 08:59:04;;;;;;;1.90;1.30;;;;;;;7.94;94.58;94266.56;5110244;28;20032;-76
2021/12/25 09:01:30;;;;;;;5.78;1.50;;;;;;;7.94;94.20;94263.13;5105862;28;20036;-78
2021/12/25 09:03:56;;;;;;;4.72;1.67;;;;;;;7.92;94.56;94262.66;5101285;28;20501;-78
2021/12/25 09:06:22;;;;;;;2.83;1.52;;;;;;;7.92;93.67;94275.75;5090559;28;20051;-78
2021/12/25 09:08:48;;;;;;;3.03;1.50;;;;;;;7.93;94.52;94272.03;5099236;28;20044;-77
2021/12/25 09:11:13;;;;;;;3.92;1.90;;;;;;;7.95;94.27;94269.94;5108651;28;20118;-78
2021/12/25 09:13:39;;;;;;;3.83;2.00;;;;;;;7.92;95.12;94275.75;5114379;28;20610;-79
2021/12/25 09:16:04;;;;;;;4.75;1.80;;;;;;;7.93;94.79;94266.81;5113342;28;20043;-79
2021/12/25 09:18:30;;;;;;;3.25;1.77;;;;;;;7.98;93.95;94279.84;5096416;28;20119;-79
2021/12/25 09:20:56;;;;;;;4.75;1.60;;;;;;;7.93;96.09;94278.09;5103161;28;20035;-80
2021/12/25 09:23:24;;;;;;;3.42;1.65;;;;;;;7.93;96.06;94288.56;5123201;28;20047;-80
2021/12/25 09:25:49;;;;;;;4.78;1.80;;;;;;;8.31;92.55;94282.53;5101763;28;20042;-80
2021/12/25 09:28:15;;;;;;;5.95;1.70;;;;;;;8.30;93.04;94287.00;5110590;28;20040;-79
2021/12/25 09:30:42;;;;;;;3.03;1.50;;;;;;;8.35;91.60;94278.28;5115499;27;20063;-78
2021/12/25 09:33:08;;;;;;;3.00;1.50;;;;;;;8.27;91.83;94273.69;5119408;27;20400;-78
2021/12/25 09:35:34;;;;;;;3.47;1.60;;;;;;;8.34;90.57;94271.47;5111228;27;20115;-78
2021/12/25 09:38:00;;;;;;;4.25;1.75;;;;;;;8.40;92.60;94275.56;5106266;28;20051;-77
2021/12/25 09:40:25;;;;;;;4.05;1.63;;;;;;;8.44;89.24;94270.56;5120470;28;20410;-77
2021/12/25 09:42:52;;;;;;;3.13;1.65;;;;;;;8.47;89.56;94281.25;5111366;28;20050;-78
2021/12/25 09:45:18;;;;;;;4.78;1.75;;;;;;;8.47;90.67;94265.53;5089363;28;20069;-77
2021/12/25 09:47:44;;;;;;;2.90;1.38;;;;;;;8.40;91.63;94278.19;5078024;28;20040;-75
2021/12/25 09:50:10;;;;;;;2.60;1.48;;;;;;;8.43;90.19;94275.03;5114197;28;20401;-77
2021/12/25 09:52:36;;;;;;;3.08;1.50;;;;;;;8.46;90.42;94282.34;5105642;27;20062;-77
2021/12/25 09:55:04;;;;;;;3.17;1.38;;;;;;;8.78;88.97;94286.03;5097579;28;20036;-75
2021/12/25 09:57:29;;;;;;;3.20;1.50;;;;;;;8.73;88.77;94267.00;5105955;27;20117;-77
2021/12/25 09:59:55;;;;;;;2.58;1.58;;;;;;;8.70;88.56;94281.44;5120069;27;20472;-76
2021/12/25 10:02:21;;;;;;;2.33;1.15;;;;;;;8.75;88.06;94276.13;5102281;27;20040;-75
2021/12/25 10:04:52;;;;;;;1.98;1.23;;;;;;;8.70;87.92;94273.59;5117282;27;20043;-75
2021/12/25 10:07:20;;;;;;;2.17;1.42;;;;;;;8.77;87.80;94273.22;5108879;28;20074;-75
2021/12/25 10:10:13;;;;;;;4.13;1.80;;;;;;;8.82;86.62;94271.28;5090972;28;20044;-76
2021/12/25 10:12:44;;;;;;;3.03;1.50;;;;;;;8.80;87.19;94262.91;5082479;28;20187;-74
2021/12/25 10:15:14;;;;;;;2.33;1.25;;;;;;;8.81;87.49;94264.47;5104243;28;20047;-81
2021/12/25 10:17:59;;;;;;;4.32;1.60;;;;;;;8.67;88.42;94258.41;5111032;27;20714;-78
2021/12/25 10:20:28;;;;;;;2.47;1.60;;;;;;;8.69;88.63;94266.75;5111785;27;20113;-80
2021/12/25 10:23:11;;;;;;;2.42;1.50;;;;;;;8.66;87.79;94267.34;5128414;27;20043;-82
2021/12/25 10:25:59;;;;;;;2.85;1.50;;;;;;;8.60;87.80;94260.63;5100001;28;20044;-79
2021/12/25 10:28:37;;;;;;;3.58;1.50;;;;;;;8.65;88.04;94276.31;5105511;28;20040;-78
2021/12/25 10:31:08;;;;;;;2.85;1.80;;;;;;;8.68;86.72;94273.09;5106150;28;20044;-78
2021/12/25 10:33:44;;;;;;;3.35;1.50;;;;;;;8.72;86.33;94266.22;5093955;28;20036;-78
2021/12/25 10:36:21;;;;;;;3.22;1.48;;;;;;;8.74;87.31;94269.31;5113016;28;20489;-78
2021/12/25 10:39:05;;;;;;;2.63;1.50;;;;;;;8.72;88.42;94265.41;5107553;28;20448;-79
2021/12/25 10:41:35;;;;;;;3.22;1.92;;;;;;;8.76;87.41;94256.69;5109967;28;20088;-77
2021/12/25 10:44:17;;;;;;;4.68;2.00;;;;;;;8.96;87.03;94267.91;5107879;28;20039;-79
2021/12/25 10:47:00;;;;;;;4.53;2.35;;;;;;;8.92;87.31;94259.06;5076198;28;20040;-76
2021/12/25 10:49:35;;;;;;;5.28;1.90;;;;;;;8.94;86.08;94262.19;5091317;28;20054;-77
2021/12/25 10:52:11;;;;;;;3.75;1.83;;;;;;;9.05;85.66;94263.56;5093716;28;20040;-76
2021/12/25 10:54:46;;;;;;;3.35;1.60;;;;;;;9.00;88.65;94261.03;5108553;28;20084;-75
2021/12/25 10:57:34;;;;;;;1.63;1.27;;;;;;;9.03;88.04;94265.69;5107964;28;20043;-77
2021/12/25 11:00:00;;;;;;;4.07;1.80;;;;;;;9.08;86.73;94256.94;5108052;27;20067;-77
2021/12/25 11:02:31;;;;;;;1.63;1.05;;;;;;;9.18;84.42;94262.78;5109188;28;20036;-77
2021/12/25 11:04:58;;;;;;;3.25;1.63;;;;;;;9.27;86.21;94275.25;5113378;27;20047;-76
2021/12/25 11:07:25;;;;;;;2.67;1.60;;;;;;;9.39;83.87;94272.91;5099510;28;20078;-76
2021/12/25 11:10:11;;;;;;;2.10;1.20;;;;;;;9.44;82.92;94264.94;5101093;28;20381;-76
2021/12/25 11:12:37;;;;;;;1.83;1.25;;;;;;;9.31;85.25;94274.38;5089877;28;20043;-76
2021/12/25 11:15:22;;;;;;;2.13;1.20;;;;;;;9.26;84.91;94265.81;5092881;28;20043;-76
2021/12/25 11:17:52;;;;;;;3.38;1.35;;;;;;;9.22;84.07;94267.47;5091673;28;20974;-75
2021/12/25 11:20:34;;;;;;;2.75;1.35;;;;;;;9.37;84.27;94261.94;5114959;27;20050;-75
2021/12/25 11:23:02;;;;;;;1.65;1.10;;;;;;;9.35;85.29;94266.69;5103932;27;20126;-75
2021/12/25 11:25:30;;;;;;;2.97;1.30;;;;;;;9.61;82.00;94258.31;5124415;27;20047;-76
2021/12/25 11:27:57;;;;;;;1.75;1.33;;;;;;;9.31;84.59;94252.56;5102949;27;20040;-75
2021/12/25 11:30:27;;;;;;;2.03;1.30;;;;;;;9.07;85.83;94261.41;5102656;28;20036;-77
2021/12/25 11:32:54;;;;;;;1.55;1.23;;;;;;;9.31;84.20;94265.69;5097697;28;20048;-77
2021/12/25 11:35:21;;;;;;;2.15;1.30;;;;;;;9.23;86.72;94250.66;5097181;28;20448;-77
2021/12/25 11:37:49;;;;;;;2.80;1.52;;;;;;;9.16;85.68;94258.91;5109782;27;20051;-75
2021/12/25 11:40:17;;;;;;;1.95;1.23;;;;;;;8.95;85.43;94264.50;5097298;28;20044;-79
2021/12/25 11:42:46;;;;;;;2.05;1.38;;;;;;;9.14;83.95;94256.56;5084951;28;20087;-77
2021/12/25 11:45:18;;;;;;;2.42;1.30;;;;;;;8.91;86.93;94265.38;5099327;28;20134;-77
2021/12/25 11:47:51;;;;;;;92.35;10.63;;;;;;;8.95;84.43;94256.66;5100857;28;20078;-79
2021/12/25 11:50:24;;;;;;;10.50;2.33;;;;;;;8.99;85.24;94255.00;5110711;27;20042;-76
2021/12/25 11:53:41;;;;;;;62.30;9.47;;;;;;;9.14;85.96;94235.56;5098077;27;20040;-77
2021/12/25 11:58:40;;;;;;;41.72;7.13;;;;;;;9.11;84.34;94246.66;5118578;27;20040;-76
2021/12/25 12:01:21;;;;;;;11.70;3.65;;;;;;;9.21;84.66;94240.44;5106998;28;20047;-77
2021/12/25 12:03:54;;;;;;;3.25;1.67;;;;;;;9.37;83.04;94243.56;5104713;28;20046;-77
2021/12/25 12:06:41;;;;;;;1.92;1.30;;;;;;;9.09;86.04;94254.03;5100136;28;20032;-79
2021/12/25 12:09:10;;;;;;;3.67;1.40;;;;;;;9.19;84.55;94238.09;5074010;28;20056;-75
2021/12/25 12:11:40;;;;;;;1.73;1.40;;;;;;;9.30;84.31;94248.41;5095038;28;20071;-77
2021/12/25 12:14:18;;;;;;;2.22;1.30;;;;;;;9.07;nan;94245.66;5089324;28;20036;-76
2021/12/25 12:16:46;;;;;;;2.28;1.30;;;;;;;9.12;84.53;94242.97;5099042;28;20040;-77
2021/12/25 12:19:29;;;;;;;1.98;1.35;;;;;;;8.99;84.54;94241.88;5091467;28;20044;-75
2021/12/25 12:21:56;;;;;;;2.10;1.40;;;;;;;8.98;84.64;94247.41;5097226;28;20085;-77
2021/12/25 12:27:09;;;;;;;3.20;1.75;;;;;;;8.73;87.00;94252.03;5106207;28;20755;-75
2021/12/25 12:29:52;;;;;;;2.78;1.60;;;;;;;8.95;85.38;94258.47;5103840;28;20092;-77
2021/12/25 12:32:20;;;;;;;3.50;1.67;;;;;;;8.74;86.88;94255.44;5108944;28;20035;-76
2021/12/25 12:34:47;;;;;;;2.92;1.60;;;;;;;8.61;88.40;94259.56;5099586;28;20030;-72
2021/12/25 12:37:13;;;;;;;3.13;1.73;;;;;;;8.64;86.92;94256.38;5100390;28;20092;-72
2021/12/25 12:40:05;;;;;;;3.25;1.65;;;;;;;8.63;86.98;94257.44;5106903;28;20459;-75
2021/12/25 12:42:40;;;;;;;3.53;1.70;;;;;;;8.63;87.06;94267.94;5081147;28;20055;-76
2021/12/25 12:45:21;;;;;;;2.30;1.45;;;;;;;8.66;87.32;94275.22;5095759;28;20040;-77
2021/12/25 12:48:10;;;;;;;4.03;1.70;;;;;;;8.63;88.00;94270.53;5096399;28;20409;-76
2021/12/25 12:50:37;;;;;;;4.05;1.70;;;;;;;8.47;88.03;94268.16;5096212;28;20043;-77
2021/12/25 12:53:06;;;;;;;3.03;1.80;;;;;;;8.55;89.45;94281.69;5096508;28;20062;-77
2021/12/25 12:55:34;;;;;;;5.85;2.08;;;;;;;8.39;88.45;94279.28;5077010;28;20048;-76
2021/12/25 12:58:08;;;;;;;2.78;1.50;;;;;;;8.46;88.73;94284.97;5088538;28;20051;-76
2021/12/25 13:00:34;;;;;;;4.63;1.85;;;;;;;8.37;89.20;94275.38;5104527;28;20063;-75
2021/12/25 13:03:00;;;;;;;3.17;1.80;;;;;;;8.44;89.33;94281.84;5093536;28;20572;-77
2021/12/25 13:05:31;;;;;;;5.55;1.98;;;;;;;8.36;89.46;94285.09;5096687;28;20039;-77
2021/12/25 13:07:59;;;;;;;4.20;2.45;;;;;;;8.52;87.97;94284.88;5108061;28;20039;-78
2021/12/25 13:13:30;;;;;;;6.63;3.15;;;;;;;8.27;89.94;94279.69;5076761;28;20055;-76
2021/12/25 13:15:59;;;;;;;12.02;5.68;;;;;;;8.44;89.41;94284.47;5103969;28;20068;-74